sensor_id;sensor_type;location;lat;lon;timestamp;pressure;altitude;pressure_sealevel;temperature;humidity
62703;BME280;66022;50.448;18.122;2023-12-20T00:00:31;98685.61;;;6.26;100.00
62703;BME280;66022;50.448;18.122;2023-12-20T00:04:37;98683.01;;;6.20;100.00
62703;BME280;66022;50.448;18.122;2023-12-20T00:08:43;98679.30;;;6.12;100.00
62703;BME280;66022;50.448;18.122;2023-12-20T00:12:49;98673.25;;;6.08;100.00
62703;BME280;66022;50.448;18.122;2023-12-20T00:16:55;98664.93;;;6.01;100.00
62703;BME280;66022;50.448;18.122;2023-12-20T00:21:01;98661.28;;;6.00;100.00
62703;BME280;66022;50.448;18.122;2023-12-20T00:25:07;98655.72;;;5.99;100.00
62703;BME280;66022;50.448;18.122;2023-12-20T00:29:13;98650.48;;;5.96;100.00
62703;BME280;66022;50.448;18.122;2023-12-20T00:33:22;98645.96;;;5.94;100.00
62703;BME280;66022;50.448;18.122;2023-12-20T00:37:25;98646.80;;;5.94;100.00
62703;BME280;66022;50.448;18.122;2023-12-20T00:41:31;98649.03;;;5.99;100.00
62703;BME280;66022;50.448;18.122;2023-12-20T00:45:37;98644.73;;;6.02;100.00
62703;BME280;66022;50.448;18.122;2023-12-20T00:49:43;98637.00;;;6.01;100.00
62703;BME280;66022;50.448;18.122;2023-12-20T00:53:49;98630.76;;;6.00;100.00
62703;BME280;66022;50.448;18.122;2023-12-20T00:57:55;98629.92;;;5.99;100.00
62703;BME280;66022;50.448;18.122;2023-12-20T01:02:01;98622.94;;;5.99;100.00
62703;BME280;66022;50.448;18.122;2023-12-20T01:06:07;98620.12;;;5.97;100.00
62703;BME280;66022;50.448;18.122;2023-12-20T01:10:14;98616.80;;;5.95;100.00
62703;BME280;66022;50.448;18.122;2023-12-20T01:14:19;98611.89;;;5.94;100.00
62703;BME280;66022;50.448;18.122;2023-12-20T01:18:25;98606.66;;;5.92;100.00
62703;BME280;66022;50.448;18.122;2023-12-20T01:22:31;98605.05;;;5.94;100.00
62703;BME280;66022;50.448;18.122;2023-12-20T01:26:37;98607.15;;;5.92;100.00
62703;BME280;66022;50.448;18.122;2023-12-20T01:30:43;98609.05;;;5.93;100.00
62703;BME280;66022;50.448;18.122;2023-12-20T01:34:50;98604.32;;;5.92;100.00
62703;BME280;66022;50.448;18.122;2023-12-20T01:38:55;98600.95;;;5.88;100.00
62703;BME280;66022;50.448;18.122;2023-12-20T01:43:01;98594.05;;;5.88;100.00
62703;BME280;66022;50.448;18.122;2023-12-20T01:47:07;98589.73;;;5.85;100.00
62703;BME280;66022;50.448;18.122;2023-12-20T01:51:13;98591.14;;;5.85;100.00
62703;BME280;66022;50.448;18.122;2023-12-20T01:55:19;98593.32;;;5.86;100.00
62703;BME280;66022;50.448;18.122;2023-12-20T01:59:25;98591.56;;;5.85;100.00
62703;BME280;66022;50.448;18.122;2023-12-20T02:03:31;98587.23;;;5.85;100.00
62703;BME280;66022;50.448;18.122;2023-12-20T02:07:37;98580.50;;;5.83;100.00
62703;BME280;66022;50.448;18.122;2023-12-20T02:11:43;98575.67;;;5.84;100.00
62703;BME280;66022;50.448;18.122;2023-12-20T02:15:49;98571.23;;;5.85;100.00
62703;BME280;66022;50.448;18.122;2023-12-20T02:19:55;98567.64;;;5.85;100.00
62703;BME280;66022;50.448;18.122;2023-12-20T02:24:01;98565.31;;;5.86;100.00
62703;BME280;66022;50.448;18.122;2023-12-20T02:28:07;98563.55;;;5.85;100.00
62703;BME280;66022;50.448;18.122;2023-12-20T02:32:13;98562.31;;;5.86;100.00
62703;BME280;66022;50.448;18.122;2023-12-20T02:36:19;98560.33;;;5.84;100.00
62703;BME280;66022;50.448;18.122;2023-12-20T02:40:25;98557.14;;;5.86;100.00
62703;BME280;66022;50.448;18.122;2023-12-20T02:44:31;98553.19;;;5.87;100.00
62703;BME280;66022;50.448;18.122;2023-12-20T02:48:37;98549.10;;;5.87;100.00
62703;BME280;66022;50.448;18.122;2023-12-20T02:52:44;98547.07;;;5.89;100.00
62703;BME280;66022;50.448;18.122;2023-12-20T02:56:49;98544.03;;;5.88;100.00
62703;BME280;66022;50.448;18.122;2023-12-20T03:00:55;98542.24;;;5.89;100.00
62703;BME280;66022;50.448;18.122;2023-12-20T03:05:01;98541.01;;;5.89;100.00
62703;BME280;66022;50.448;18.122;2023-12-20T03:09:07;98540.49;;;5.89;100.00
62703;BME280;66022;50.448;18.122;2023-12-20T03:13:13;98539.23;;;5.90;100.00
62703;BME280;66022;50.448;18.122;2023-12-20T03:17:19;98536.14;;;5.90;100.00
62703;BME280;66022;50.448;18.122;2023-12-20T03:21:25;98531.79;;;5.92;100.00
62703;BME280;66022;50.448;18.122;2023-12-20T03:25:31;98530.19;;;5.92;100.00
62703;BME280;66022;50.448;18.122;2023-12-20T03:29:37;98526.53;;;5.92;100.00
62703;BME280;66022;50.448;18.122;2023-12-20T03:33:43;98522.36;;;5.93;100.00
62703;BME280;66022;50.448;18.122;2023-12-20T03:37:49;98519.25;;;5.93;100.00
62703;BME280;66022;50.448;18.122;2023-12-20T03:41:55;98517.07;;;5.94;100.00
62703;BME280;66022;50.448;18.122;2023-12-20T03:46:02;98515.64;;;5.95;100.00
62703;BME280;66022;50.448;18.122;2023-12-20T03:50:08;98514.58;;;5.96;100.00
62703;BME280;66022;50.448;18.122;2023-12-20T03:54:13;98514.22;;;5.97;100.00
62703;BME280;66022;50.448;18.122;2023-12-20T03:58:19;98515.56;;;5.94;100.00
62703;BME280;66022;50.448;18.122;2023-12-20T04:02:26;98516.56;;;5.94;100.00
62703;BME280;66022;50.448;18.122;2023-12-20T04:06:32;98518.44;;;5.92;100.00
62703;BME280;66022;50.448;18.122;2023-12-20T04:10:38;98518.36;;;5.93;100.00
62703;BME280;66022;50.448;18.122;2023-12-20T04:14:43;98517.86;;;5.93;100.00
62703;BME280;66022;50.448;18.122;2023-12-20T04:18:49;98515.95;;;5.91;100.00
62703;BME280;66022;50.448;18.122;2023-12-20T04:22:56;98514.18;;;5.92;100.00
62703;BME280;66022;50.448;18.122;2023-12-20T04:27:01;98512.53;;;5.91;100.00
62703;BME280;66022;50.448;18.122;2023-12-20T04:31:07;98512.33;;;5.89;100.00
62703;BME280;66022;50.448;18.122;2023-12-20T04:35:13;98511.61;;;5.88;100.00
62703;BME280;66022;50.448;18.122;2023-12-20T04:39:20;98509.94;;;5.85;100.00
62703;BME280;66022;50.448;18.122;2023-12-20T04:43:25;98509.16;;;5.84;100.00
62703;BME280;66022;50.448;18.122;2023-12-20T04:47:32;98509.36;;;5.81;100.00
62703;BME280;66022;50.448;18.122;2023-12-20T04:51:38;98510.52;;;5.80;100.00
62703;BME280;66022;50.448;18.122;2023-12-20T04:55:43;98511.41;;;5.78;100.00
62703;BME280;66022;50.448;18.122;2023-12-20T04:59:49;98511.50;;;5.77;100.00
62703;BME280;66022;50.448;18.122;2023-12-20T05:03:56;98509.94;;;5.76;100.00
62703;BME280;66022;50.448;18.122;2023-12-20T05:08:02;98508.37;;;5.75;100.00
62703;BME280;66022;50.448;18.122;2023-12-20T05:12:08;98506.53;;;5.75;100.00
62703;BME280;66022;50.448;18.122;2023-12-20T05:16:13;98505.74;;;5.73;100.00
62703;BME280;66022;50.448;18.122;2023-12-20T05:20:20;98505.30;;;5.74;100.00
62703;BME280;66022;50.448;18.122;2023-12-20T05:24:26;98505.11;;;5.74;100.00
62703;BME280;66022;50.448;18.122;2023-12-20T05:28:32;98504.49;;;5.72;100.00
62703;BME280;66022;50.448;18.122;2023-12-20T05:32:38;98504.05;;;5.73;100.00
62703;BME280;66022;50.448;18.122;2023-12-20T05:36:43;98503.23;;;5.73;100.00
62703;BME280;66022;50.448;18.122;2023-12-20T05:40:50;98501.70;;;5.75;100.00
62703;BME280;66022;50.448;18.122;2023-12-20T05:44:58;98500.76;;;5.76;100.00
62703;BME280;66022;50.448;18.122;2023-12-20T05:49:01;98501.11;;;5.76;100.00
62703;BME280;66022;50.448;18.122;2023-12-20T05:53:08;98502.83;;;5.78;100.00
62703;BME280;66022;50.448;18.122;2023-12-20T05:57:16;98504.91;;;5.77;100.00
62703;BME280;66022;50.448;18.122;2023-12-20T06:01:23;98505.63;;;5.79;100.00
62703;BME280;66022;50.448;18.122;2023-12-20T06:05:28;98506.86;;;5.81;100.00
62703;BME280;66022;50.448;18.122;2023-12-20T06:09:32;98508.45;;;5.81;100.00
62703;BME280;66022;50.448;18.122;2023-12-20T06:13:38;98509.30;;;5.80;100.00
62703;BME280;66022;50.448;18.122;2023-12-20T06:17:44;98511.22;;;5.78;100.00
62703;BME280;66022;50.448;18.122;2023-12-20T06:21:50;98513.65;;;5.78;100.00
62703;BME280;66022;50.448;18.122;2023-12-20T06:25:56;98516.50;;;5.76;100.00
62703;BME280;66022;50.448;18.122;2023-12-20T06:30:02;98519.37;;;5.74;100.00
62703;BME280;66022;50.448;18.122;2023-12-20T06:34:08;98522.00;;;5.73;100.00
62703;BME280;66022;50.448;18.122;2023-12-20T06:38:14;98524.44;;;5.70;100.00
62703;BME280;66022;50.448;18.122;2023-12-20T06:42:20;98526.51;;;5.70;100.00
62703;BME280;66022;50.448;18.122;2023-12-20T06:46:26;98528.49;;;5.67;100.00
62703;BME280;66022;50.448;18.122;2023-12-20T06:50:32;98530.13;;;5.68;100.00
62703;BME280;66022;50.448;18.122;2023-12-20T06:54:38;98530.49;;;5.67;100.00
62703;BME280;66022;50.448;18.122;2023-12-20T06:58:44;98533.01;;;5.64;100.00
62703;BME280;66022;50.448;18.122;2023-12-20T07:02:50;98535.27;;;5.64;100.00
62703;BME280;66022;50.448;18.122;2023-12-20T07:06:56;98537.64;;;5.62;100.00
62703;BME280;66022;50.448;18.122;2023-12-20T07:11:02;98539.64;;;5.62;100.00
62703;BME280;66022;50.448;18.122;2023-12-20T07:15:08;98541.83;;;5.61;100.00
62703;BME280;66022;50.448;18.122;2023-12-20T07:19:14;98544.19;;;5.59;100.00
62703;BME280;66022;50.448;18.122;2023-12-20T07:23:22;98545.45;;;5.58;100.00
62703;BME280;66022;50.448;18.122;2023-12-20T07:27:26;98546.88;;;5.55;100.00
62703;BME280;66022;50.448;18.122;2023-12-20T07:31:34;98548.24;;;5.55;100.00
62703;BME280;66022;50.448;18.122;2023-12-20T07:35:38;98548.67;;;5.53;100.00
62703;BME280;66022;50.448;18.122;2023-12-20T07:39:44;98549.27;;;5.52;100.00
62703;BME280;66022;50.448;18.122;2023-12-20T07:43:50;98550.53;;;5.51;100.00
62703;BME280;66022;50.448;18.122;2023-12-20T07:47:56;98551.64;;;5.49;100.00
62703;BME280;66022;50.448;18.122;2023-12-20T07:52:02;98553.06;;;5.49;100.00
62703;BME280;66022;50.448;18.122;2023-12-20T08:00:14;98557.28;;;5.45;100.00
62703;BME280;66022;50.448;18.122;2023-12-20T08:04:20;98561.78;;;5.44;100.00
62703;BME280;66022;50.448;18.122;2023-12-20T08:08:29;98564.67;;;5.41;100.00
62703;BME280;66022;50.448;18.122;2023-12-20T08:12:32;98567.41;;;5.40;100.00
62703;BME280;66022;50.448;18.122;2023-12-20T08:16:38;98570.53;;;5.38;100.00
62703;BME280;66022;50.448;18.122;2023-12-20T08:20:44;98572.17;;;5.39;100.00
62703;BME280;66022;50.448;18.122;2023-12-20T08:24:50;98574.10;;;5.39;100.00
62703;BME280;66022;50.448;18.122;2023-12-20T08:28:56;98575.36;;;5.39;100.00
62703;BME280;66022;50.448;18.122;2023-12-20T08:33:02;98576.06;;;5.40;100.00
62703;BME280;66022;50.448;18.122;2023-12-20T08:37:08;98577.81;;;5.42;100.00
62703;BME280;66022;50.448;18.122;2023-12-20T08:41:14;98580.10;;;5.46;100.00
62703;BME280;66022;50.448;18.122;2023-12-20T08:45:20;98580.80;;;5.49;100.00
62703;BME280;66022;50.448;18.122;2023-12-20T08:49:26;98581.34;;;5.51;100.00
62703;BME280;66022;50.448;18.122;2023-12-20T08:53:32;98581.98;;;5.54;100.00
62703;BME280;66022;50.448;18.122;2023-12-20T08:57:38;98582.72;;;5.56;100.00
62703;BME280;66022;50.448;18.122;2023-12-20T09:01:44;98582.19;;;5.58;100.00
62703;BME280;66022;50.448;18.122;2023-12-20T09:05:50;98582.51;;;5.59;100.00
62703;BME280;66022;50.448;18.122;2023-12-20T09:09:56;98584.23;;;5.61;100.00
62703;BME280;66022;50.448;18.122;2023-12-20T09:14:02;98584.63;;;5.62;100.00
62703;BME280;66022;50.448;18.122;2023-12-20T09:18:08;98584.88;;;5.63;100.00
62703;BME280;66022;50.448;18.122;2023-12-20T09:22:14;98584.91;;;5.66;100.00
62703;BME280;66022;50.448;18.122;2023-12-20T09:26:20;98583.67;;;5.65;100.00
62703;BME280;66022;50.448;18.122;2023-12-20T09:30:26;98582.56;;;5.68;100.00
62703;BME280;66022;50.448;18.122;2023-12-20T09:34:32;98580.93;;;5.70;100.00
62703;BME280;66022;50.448;18.122;2023-12-20T09:38:37;98578.11;;;5.71;100.00
62703;BME280;66022;50.448;18.122;2023-12-20T09:46:50;98574.52;;;5.76;100.00
62703;BME280;66022;50.448;18.122;2023-12-20T09:50:56;98573.24;;;5.79;100.00
62703;BME280;66022;50.448;18.122;2023-12-20T09:55:03;98572.30;;;5.81;100.00
62703;BME280;66022;50.448;18.122;2023-12-20T09:59:08;98571.12;;;5.81;100.00
62703;BME280;66022;50.448;18.122;2023-12-20T10:03:14;98569.51;;;5.83;100.00
62703;BME280;66022;50.448;18.122;2023-12-20T10:07:20;98567.85;;;5.83;100.00
62703;BME280;66022;50.448;18.122;2023-12-20T10:11:26;98565.91;;;5.85;100.00
62703;BME280;66022;50.448;18.122;2023-12-20T10:15:32;98564.48;;;5.86;100.00
62703;BME280;66022;50.448;18.122;2023-12-20T10:19:38;98561.53;;;5.87;100.00
62703;BME280;66022;50.448;18.122;2023-12-20T10:23:44;98559.44;;;5.88;100.00
62703;BME280;66022;50.448;18.122;2023-12-20T10:27:50;98556.94;;;5.87;100.00
62703;BME280;66022;50.448;18.122;2023-12-20T10:31:56;98556.19;;;5.87;100.00
62703;BME280;66022;50.448;18.122;2023-12-20T10:36:02;98554.38;;;5.86;100.00
62703;BME280;66022;50.448;18.122;2023-12-20T10:40:08;98553.45;;;5.85;100.00
62703;BME280;66022;50.448;18.122;2023-12-20T10:44:14;98551.98;;;5.84;100.00
62703;BME280;66022;50.448;18.122;2023-12-20T10:48:20;98552.26;;;5.82;100.00
62703;BME280;66022;50.448;18.122;2023-12-20T10:52:26;98552.35;;;5.82;100.00
62703;BME280;66022;50.448;18.122;2023-12-20T10:56:32;98553.39;;;5.79;100.00
62703;BME280;66022;50.448;18.122;2023-12-20T11:00:41;98552.80;;;5.81;100.00
62703;BME280;66022;50.448;18.122;2023-12-20T11:08:51;98547.77;;;5.82;100.00
62703;BME280;66022;50.448;18.122;2023-12-20T11:21:11;98533.36;;;5.88;100.00
62703;BME280;66022;50.448;18.122;2023-12-20T11:25:14;98529.55;;;5.92;100.00
62703;BME280;66022;50.448;18.122;2023-12-20T11:33:26;98528.74;;;6.03;100.00
62703;BME280;66022;50.448;18.122;2023-12-20T11:37:34;98526.76;;;6.06;100.00
62703;BME280;66022;50.448;18.122;2023-12-20T11:41:38;98524.27;;;6.11;100.00
62703;BME280;66022;50.448;18.122;2023-12-20T11:49:50;98524.13;;;6.20;100.00
62703;BME280;66022;50.448;18.122;2023-12-20T11:53:56;98523.72;;;6.25;100.00
62703;BME280;66022;50.448;18.122;2023-12-20T11:58:02;98522.24;;;6.29;100.00
62703;BME280;66022;50.448;18.122;2023-12-20T12:02:08;98520.56;;;6.32;100.00
62703;BME280;66022;50.448;18.122;2023-12-20T12:06:14;98519.06;;;6.32;100.00
62703;BME280;66022;50.448;18.122;2023-12-20T12:10:20;98518.62;;;6.34;100.00
62703;BME280;66022;50.448;18.122;2023-12-20T12:14:26;98519.19;;;6.34;100.00
62703;BME280;66022;50.448;18.122;2023-12-20T12:18:32;98519.23;;;6.32;100.00
62703;BME280;66022;50.448;18.122;2023-12-20T12:22:38;98518.16;;;6.32;100.00
62703;BME280;66022;50.448;18.122;2023-12-20T12:26:49;98516.21;;;6.28;100.00
62703;BME280;66022;50.448;18.122;2023-12-20T12:34:56;98508.08;;;6.26;100.00
62703;BME280;66022;50.448;18.122;2023-12-20T12:39:02;98505.94;;;6.24;100.00
62703;BME280;66022;50.448;18.122;2023-12-20T12:43:08;98505.61;;;6.24;100.00
62703;BME280;66022;50.448;18.122;2023-12-20T12:47:14;98503.22;;;6.22;100.00
62703;BME280;66022;50.448;18.122;2023-12-20T12:51:20;98499.88;;;6.22;100.00
62703;BME280;66022;50.448;18.122;2023-12-20T12:55:26;98496.08;;;6.21;100.00
62703;BME280;66022;50.448;18.122;2023-12-20T12:59:32;98493.50;;;6.20;100.00
62703;BME280;66022;50.448;18.122;2023-12-20T13:03:38;98492.16;;;6.21;100.00
62703;BME280;66022;50.448;18.122;2023-12-20T13:07:45;98490.34;;;6.19;100.00
62703;BME280;66022;50.448;18.122;2023-12-20T13:11:51;98489.40;;;6.20;100.00
62703;BME280;66022;50.448;18.122;2023-12-20T13:15:57;98487.80;;;6.21;100.00
62703;BME280;66022;50.448;18.122;2023-12-20T13:20:03;98487.64;;;6.22;100.00
62703;BME280;66022;50.448;18.122;2023-12-20T13:24:08;98489.11;;;6.23;100.00
62703;BME280;66022;50.448;18.122;2023-12-20T13:28:15;98487.87;;;6.22;100.00
62703;BME280;66022;50.448;18.122;2023-12-20T13:32:21;98487.00;;;6.25;100.00
62703;BME280;66022;50.448;18.122;2023-12-20T13:36:28;98485.92;;;6.24;100.00
62703;BME280;66022;50.448;18.122;2023-12-20T13:40:33;98484.27;;;6.28;100.00
62703;BME280;66022;50.448;18.122;2023-12-20T13:44:39;98481.80;;;6.31;100.00
62703;BME280;66022;50.448;18.122;2023-12-20T13:48:45;98479.05;;;6.31;100.00
62703;BME280;66022;50.448;18.122;2023-12-20T13:52:51;98477.40;;;6.34;100.00
62703;BME280;66022;50.448;18.122;2023-12-20T13:56:57;98475.59;;;6.33;100.00
62703;BME280;66022;50.448;18.122;2023-12-20T14:01:03;98473.64;;;6.34;100.00
62703;BME280;66022;50.448;18.122;2023-12-20T14:05:11;98472.33;;;6.34;100.00
62703;BME280;66022;50.448;18.122;2023-12-20T14:09:15;98469.28;;;6.32;100.00
62703;BME280;66022;50.448;18.122;2023-12-20T14:13:21;98468.05;;;6.31;100.00
62703;BME280;66022;50.448;18.122;2023-12-20T14:17:27;98467.02;;;6.28;100.00
62703;BME280;66022;50.448;18.122;2023-12-20T14:21:33;98464.06;;;6.25;100.00
62703;BME280;66022;50.448;18.122;2023-12-20T14:25:39;98459.20;;;6.21;100.00
62703;BME280;66022;50.448;18.122;2023-12-20T14:29:45;98456.87;;;6.16;100.00
62703;BME280;66022;50.448;18.122;2023-12-20T14:33:51;98456.62;;;6.11;100.00
62703;BME280;66022;50.448;18.122;2023-12-20T14:37:56;98458.08;;;6.05;100.00
62703;BME280;66022;50.448;18.122;2023-12-20T14:42:03;98457.71;;;6.00;100.00
62703;BME280;66022;50.448;18.122;2023-12-20T14:46:08;98457.53;;;5.94;100.00
62703;BME280;66022;50.448;18.122;2023-12-20T14:50:15;98456.84;;;5.91;100.00
62703;BME280;66022;50.448;18.122;2023-12-20T14:54:21;98457.57;;;5.87;100.00
62703;BME280;66022;50.448;18.122;2023-12-20T14:58:27;98458.34;;;5.81;100.00
62703;BME280;66022;50.448;18.122;2023-12-20T15:02:33;98461.22;;;5.78;100.00
62703;BME280;66022;50.448;18.122;2023-12-20T15:06:39;98462.77;;;5.71;100.00
62703;BME280;66022;50.448;18.122;2023-12-20T15:10:45;98463.56;;;5.68;100.00
62703;BME280;66022;50.448;18.122;2023-12-20T15:14:53;98463.53;;;5.64;100.00
62703;BME280;66022;50.448;18.122;2023-12-20T15:18:57;98463.25;;;5.59;100.00
62703;BME280;66022;50.448;18.122;2023-12-20T15:23:03;98462.71;;;5.57;100.00
62703;BME280;66022;50.448;18.122;2023-12-20T15:27:09;98460.11;;;5.53;100.00
62703;BME280;66022;50.448;18.122;2023-12-20T15:31:15;98457.07;;;5.50;100.00
62703;BME280;66022;50.448;18.122;2023-12-20T15:35:21;98453.76;;;5.48;100.00
62703;BME280;66022;50.448;18.122;2023-12-20T15:39:27;98451.89;;;5.45;100.00
62703;BME280;66022;50.448;18.122;2023-12-20T15:43:33;98449.59;;;5.42;100.00
62703;BME280;66022;50.448;18.122;2023-12-20T15:47:39;98448.75;;;5.38;100.00
62703;BME280;66022;50.448;18.122;2023-12-20T15:51:45;98449.88;;;5.35;100.00
62703;BME280;66022;50.448;18.122;2023-12-20T15:55:51;98452.08;;;5.32;100.00
62703;BME280;66022;50.448;18.122;2023-12-20T15:59:57;98452.21;;;5.28;100.00
62703;BME280;66022;50.448;18.122;2023-12-20T16:04:03;98451.78;;;5.24;100.00
62703;BME280;66022;50.448;18.122;2023-12-20T16:08:09;98452.19;;;5.18;100.00
62703;BME280;66022;50.448;18.122;2023-12-20T16:12:16;98452.50;;;5.13;100.00
62703;BME280;66022;50.448;18.122;2023-12-20T16:16:21;98451.85;;;5.07;100.00
62703;BME280;66022;50.448;18.122;2023-12-20T16:20:27;98449.38;;;5.04;100.00
62703;BME280;66022;50.448;18.122;2023-12-20T16:24:33;98447.01;;;5.01;100.00
62703;BME280;66022;50.448;18.122;2023-12-20T16:28:39;98443.83;;;4.95;100.00
62703;BME280;66022;50.448;18.122;2023-12-20T16:32:45;98441.02;;;4.93;100.00
62703;BME280;66022;50.448;18.122;2023-12-20T16:36:51;98439.03;;;4.88;100.00
62703;BME280;66022;50.448;18.122;2023-12-20T16:40:58;98436.61;;;4.87;100.00
62703;BME280;66022;50.448;18.122;2023-12-20T16:45:03;98435.69;;;4.87;100.00
62703;BME280;66022;50.448;18.122;2023-12-20T16:49:09;98433.68;;;4.89;100.00
62703;BME280;66022;50.448;18.122;2023-12-20T16:53:15;98431.13;;;4.92;100.00
62703;BME280;66022;50.448;18.122;2023-12-20T16:57:24;98428.70;;;4.93;100.00
62703;BME280;66022;50.448;18.122;2023-12-20T17:01:27;98430.52;;;4.95;100.00
62703;BME280;66022;50.448;18.122;2023-12-20T17:05:33;98429.75;;;4.96;100.00
62703;BME280;66022;50.448;18.122;2023-12-20T17:09:39;98429.47;;;4.97;100.00
62703;BME280;66022;50.448;18.122;2023-12-20T17:13:44;98430.70;;;4.99;100.00
62703;BME280;66022;50.448;18.122;2023-12-20T17:17:51;98431.43;;;5.01;100.00
62703;BME280;66022;50.448;18.122;2023-12-20T17:21:57;98432.72;;;5.04;100.00
62703;BME280;66022;50.448;18.122;2023-12-20T17:26:03;98435.02;;;5.06;100.00
62703;BME280;66022;50.448;18.122;2023-12-20T17:30:09;98434.25;;;5.09;100.00
62703;BME280;66022;50.448;18.122;2023-12-20T17:34:15;98433.95;;;5.12;100.00
62703;BME280;66022;50.448;18.122;2023-12-20T17:38:21;98433.45;;;5.12;100.00
62703;BME280;66022;50.448;18.122;2023-12-20T17:42:27;98433.67;;;5.15;100.00
62703;BME280;66022;50.448;18.122;2023-12-20T17:46:35;98435.75;;;5.15;99.43
62703;BME280;66022;50.448;18.122;2023-12-20T17:50:39;98436.63;;;5.18;100.00
62703;BME280;66022;50.448;18.122;2023-12-20T17:54:45;98437.74;;;5.21;99.91
62703;BME280;66022;50.448;18.122;2023-12-20T17:58:51;98436.72;;;5.21;100.00
62703;BME280;66022;50.448;18.122;2023-12-20T18:02:57;98435.36;;;5.23;100.00
62703;BME280;66022;50.448;18.122;2023-12-20T18:07:03;98433.62;;;5.23;99.84
62703;BME280;66022;50.448;18.122;2023-12-20T18:11:09;98428.44;;;5.25;100.00
62703;BME280;66022;50.448;18.122;2023-12-20T18:15:15;98424.17;;;5.26;99.32
62703;BME280;66022;50.448;18.122;2023-12-20T18:19:21;98418.73;;;5.28;98.30
62703;BME280;66022;50.448;18.122;2023-12-20T18:23:27;98415.20;;;5.30;98.15
62703;BME280;66022;50.448;18.122;2023-12-20T18:27:33;98411.89;;;5.30;97.87
62703;BME280;66022;50.448;18.122;2023-12-20T18:31:39;98410.80;;;5.30;98.06
62703;BME280;66022;50.448;18.122;2023-12-20T18:35:45;98410.64;;;5.30;97.60
62703;BME280;66022;50.448;18.122;2023-12-20T18:39:54;98411.30;;;5.29;97.38
62703;BME280;66022;50.448;18.122;2023-12-20T18:43:57;98411.91;;;5.28;98.46
62703;BME280;66022;50.448;18.122;2023-12-20T18:48:03;98413.28;;;5.26;99.62
62703;BME280;66022;50.448;18.122;2023-12-20T18:52:09;98415.80;;;5.24;98.87
62703;BME280;66022;50.448;18.122;2023-12-20T18:56:15;98418.09;;;5.20;98.12
62703;BME280;66022;50.448;18.122;2023-12-20T19:00:21;98420.63;;;5.18;98.20
62703;BME280;66022;50.448;18.122;2023-12-20T19:04:27;98424.80;;;5.17;99.19
62703;BME280;66022;50.448;18.122;2023-12-20T19:08:33;98427.17;;;5.14;98.86
62703;BME280;66022;50.448;18.122;2023-12-20T19:12:39;98430.17;;;5.15;99.79
62703;BME280;66022;50.448;18.122;2023-12-20T19:16:45;98433.84;;;5.15;99.45
62703;BME280;66022;50.448;18.122;2023-12-20T19:20:51;98436.63;;;5.17;98.63
62703;BME280;66022;50.448;18.122;2023-12-20T19:24:57;98437.62;;;5.18;98.06
62703;BME280;66022;50.448;18.122;2023-12-20T19:29:03;98438.21;;;5.18;97.86
62703;BME280;66022;50.448;18.122;2023-12-20T19:33:09;98438.34;;;5.19;97.95
62703;BME280;66022;50.448;18.122;2023-12-20T19:37:15;98439.53;;;5.19;98.51
62703;BME280;66022;50.448;18.122;2023-12-20T19:41:22;98441.41;;;5.20;97.83
62703;BME280;66022;50.448;18.122;2023-12-20T19:45:27;98442.49;;;5.21;98.05
62703;BME280;66022;50.448;18.122;2023-12-20T19:49:33;98441.05;;;5.22;99.46
62703;BME280;66022;50.448;18.122;2023-12-20T19:53:39;98438.60;;;5.26;97.68
62703;BME280;66022;50.448;18.122;2023-12-20T19:57:45;98436.00;;;5.28;97.57
62703;BME280;66022;50.448;18.122;2023-12-20T20:01:51;98437.69;;;5.30;98.20
62703;BME280;66022;50.448;18.122;2023-12-20T20:05:57;98438.50;;;5.32;98.32
62703;BME280;66022;50.448;18.122;2023-12-20T20:10:03;98437.79;;;5.34;98.07
62703;BME280;66022;50.448;18.122;2023-12-20T20:14:09;98436.70;;;5.37;97.67
62703;BME280;66022;50.448;18.122;2023-12-20T20:18:15;98435.11;;;5.37;97.83
62703;BME280;66022;50.448;18.122;2023-12-20T20:22:21;98432.23;;;5.40;98.58
62703;BME280;66022;50.448;18.122;2023-12-20T20:26:28;98427.98;;;5.38;97.03
62703;BME280;66022;50.448;18.122;2023-12-20T20:30:33;98426.39;;;5.41;98.50
62703;BME280;66022;50.448;18.122;2023-12-20T20:34:39;98424.84;;;5.42;99.01
62703;BME280;66022;50.448;18.122;2023-12-20T20:38:45;98423.80;;;5.41;98.32
62703;BME280;66022;50.448;18.122;2023-12-20T20:42:51;98422.27;;;5.42;98.44
62703;BME280;66022;50.448;18.122;2023-12-20T20:46:57;98422.63;;;5.40;98.70
62703;BME280;66022;50.448;18.122;2023-12-20T20:51:03;98422.80;;;5.41;98.08
62703;BME280;66022;50.448;18.122;2023-12-20T20:55:09;98423.21;;;5.41;98.98
62703;BME280;66022;50.448;18.122;2023-12-20T20:59:15;98422.30;;;5.41;98.33
62703;BME280;66022;50.448;18.122;2023-12-20T21:03:21;98422.52;;;5.42;98.77
62703;BME280;66022;50.448;18.122;2023-12-20T21:07:28;98422.45;;;5.42;98.66
62703;BME280;66022;50.448;18.122;2023-12-20T21:11:33;98422.57;;;5.45;98.44
62703;BME280;66022;50.448;18.122;2023-12-20T21:15:39;98422.46;;;5.47;98.77
62703;BME280;66022;50.448;18.122;2023-12-20T21:19:45;98421.26;;;5.49;98.90
62703;BME280;66022;50.448;18.122;2023-12-20T21:23:51;98419.71;;;5.51;98.79
62703;BME280;66022;50.448;18.122;2023-12-20T21:27:57;98416.06;;;5.52;99.08
62703;BME280;66022;50.448;18.122;2023-12-20T21:32:03;98414.10;;;5.54;99.42
62703;BME280;66022;50.448;18.122;2023-12-20T21:36:09;98412.95;;;5.54;98.35
62703;BME280;66022;50.448;18.122;2023-12-20T21:40:15;98413.99;;;5.55;99.12
62703;BME280;66022;50.448;18.122;2023-12-20T21:44:21;98414.65;;;5.56;99.13
62703;BME280;66022;50.448;18.122;2023-12-20T21:48:27;98413.17;;;5.54;99.27
62703;BME280;66022;50.448;18.122;2023-12-20T21:52:33;98412.38;;;5.57;98.88
62703;BME280;66022;50.448;18.122;2023-12-20T21:56:42;98411.31;;;5.55;99.45
62703;BME280;66022;50.448;18.122;2023-12-20T22:00:45;98409.11;;;5.59;98.06